createdAt,value
2022-10-15T00:01:40.790Z,20.6
2022-10-15T00:03:58.913Z,20.6
2022-10-15T00:06:16.132Z,20.4
2022-10-15T00:08:33.797Z,20.6
2022-10-15T00:10:51.747Z,20.6
2022-10-15T00:13:09.049Z,20.8
2022-10-15T00:15:26.734Z,20.6
2022-10-15T00:17:44.381Z,20.7
2022-10-15T00:20:01.975Z,20.5
2022-10-15T00:22:19.535Z,20.8
2022-10-15T00:24:37.120Z,20.9
2022-10-15T00:26:54.445Z,20.7
2022-10-15T00:29:11.972Z,20.8
2022-10-15T00:31:29.726Z,20.5
2022-10-15T00:33:47.737Z,20.5
2022-10-15T00:36:04.883Z,20.5
2022-10-15T00:38:22.626Z,20.3
2022-10-15T00:40:40.204Z,20.5
2022-10-15T00:42:57.865Z,20.6
2022-10-15T00:45:15.201Z,20.9
2022-10-15T00:47:32.893Z,20.6
2022-10-15T00:49:50.848Z,20.9
2022-10-15T00:52:07.709Z,20.6
2022-10-15T00:54:25.235Z,20.8
2022-10-15T00:56:43.669Z,20.8
2022-10-15T00:59:00.568Z,20.4
2022-10-15T01:01:18.267Z,20.4
2022-10-15T01:03:36.029Z,20.8
2022-10-15T01:05:53.441Z,20.9
2022-10-15T01:08:10.901Z,20.6
2022-10-15T01:10:28.431Z,20.7
2022-10-15T01:12:46.022Z,20.4
2022-10-15T01:15:03.835Z,20.6
2022-10-15T01:17:21.584Z,20.6
2022-10-15T01:19:38.812Z,20.5
2022-10-15T01:21:56.522Z,20.4
2022-10-15T01:24:14.683Z,21.1
2022-10-15T01:26:31.727Z,20.3
2022-10-15T01:28:49.344Z,20.4
2022-10-15T01:31:06.882Z,20.3
2022-10-15T01:33:43.087Z,20.4
2022-10-15T01:36:01.395Z,20.6
2022-10-15T01:38:18.066Z,20.6
2022-10-15T01:40:35.537Z,20.8
2022-10-15T01:42:53.235Z,20.6
2022-10-15T01:45:10.468Z,20.8
2022-10-15T01:47:28.172Z,20.6
2022-10-15T01:49:45.708Z,20.6
2022-10-15T01:52:03.314Z,20.5
2022-10-15T01:54:20.913Z,20.8
2022-10-15T01:56:38.651Z,20.6
2022-10-15T01:58:56.188Z,20.6
2022-10-15T02:01:13.826Z,20.4
2022-10-15T02:03:31.430Z,20.6
2022-10-15T02:05:48.976Z,20.9
2022-10-15T02:08:06.656Z,20.6
2022-10-15T02:10:24.096Z,20.6
2022-10-15T02:12:41.669Z,20.6
2022-10-15T02:14:58.974Z,20.8
2022-10-15T02:17:16.672Z,20.8
2022-10-15T02:19:34.135Z,20.8
2022-10-15T02:21:51.574Z,20.6
2022-10-15T02:24:09.243Z,20.7
2022-10-15T02:26:26.812Z,20.3
2022-10-15T02:28:44.713Z,20.4
2022-10-15T02:31:02.540Z,20.4
2022-10-15T02:33:19.995Z,20.6
2022-10-15T02:35:37.148Z,20.1
2022-10-15T02:37:54.807Z,20.7
2022-10-15T02:40:12.736Z,20.4
2022-10-15T02:42:30.053Z,20.4
2022-10-15T02:44:47.779Z,20.5
2022-10-15T02:47:05.290Z,20.6
2022-10-15T02:49:22.690Z,20.7
2022-10-15T02:51:40.147Z,20.5
2022-10-15T02:53:57.851Z,20.4
2022-10-15T02:56:15.437Z,20.5
2022-10-15T02:58:33.632Z,20.6
2022-10-15T03:00:50.662Z,20.7
2022-10-15T03:03:08.617Z,20.7
2022-10-15T03:05:25.507Z,20.7
2022-10-15T03:07:43.056Z,20.5
2022-10-15T03:10:00.504Z,20.6
2022-10-15T03:12:18.319Z,20.5
2022-10-15T03:14:35.733Z,20.5
2022-10-15T03:16:53.110Z,20.4
2022-10-15T03:19:10.504Z,20.6
2022-10-15T03:21:28.015Z,20.6
2022-10-15T03:23:45.461Z,20.6
2022-10-15T03:26:03.035Z,20.5
2022-10-15T03:28:20.747Z,20.5
2022-10-15T03:30:38.368Z,20.6
2022-10-15T03:32:55.870Z,20.4
2022-10-15T03:35:13.536Z,20.6
2022-10-15T03:37:31.111Z,20.6
2022-10-15T03:39:48.596Z,20.2
2022-10-15T03:42:06.387Z,20.6
2022-10-15T03:44:23.835Z,20.8
2022-10-15T03:46:41.489Z,20.7
2022-10-15T03:48:59.083Z,20.6
2022-10-15T03:51:18.495Z,20.5
2022-10-15T03:53:34.331Z,20.4
2022-10-15T03:55:51.954Z,20.8
2022-10-15T03:58:09.625Z,20.8
2022-10-15T04:00:27.541Z,20.6
2022-10-15T04:02:44.808Z,20.7
2022-10-15T04:05:02.379Z,20.7
2022-10-15T04:07:20.091Z,20.4
2022-10-15T04:09:37.661Z,20.6
2022-10-15T04:11:55.542Z,20.6
2022-10-15T04:14:12.896Z,20.3
2022-10-15T04:16:30.657Z,20.6
2022-10-15T04:18:48.214Z,20.4
2022-10-15T04:21:06.836Z,20.5
2022-10-15T04:23:23.756Z,20.9
2022-10-15T04:25:41.164Z,20.8
2022-10-15T04:27:58.786Z,20.7
2022-10-15T04:30:16.330Z,20.7
2022-10-15T04:32:34.821Z,20.7
2022-10-15T04:34:52.410Z,20.8
2022-10-15T04:37:10.009Z,20.5
2022-10-15T04:39:27.611Z,20.4
2022-10-15T04:41:45.303Z,20.4
2022-10-15T04:44:02.896Z,20.3
2022-10-15T04:46:20.648Z,20.4
2022-10-15T04:48:40.320Z,20.8
2022-10-15T04:50:55.696Z,20.6
2022-10-15T04:53:13.591Z,20.8
2022-10-15T04:55:31.018Z,20.5
2022-10-15T04:57:48.817Z,20.6
2022-10-15T05:00:06.402Z,20.5
2022-10-15T05:02:24.259Z,20.4
2022-10-15T05:04:41.625Z,20.4
2022-10-15T05:07:00.342Z,20.4
2022-10-15T05:09:16.969Z,20.6
2022-10-15T05:11:19.343Z,20.5
2022-10-15T05:11:34.638Z,20.5
2022-10-15T05:13:52.832Z,20.3
2022-10-15T05:16:10.269Z,20.6
2022-10-15T05:18:27.612Z,20.9
2022-10-15T05:20:45.140Z,20.6
2022-10-15T05:23:02.876Z,20.6
2022-10-15T05:25:20.358Z,20.6
2022-10-15T05:27:38.198Z,20.4
2022-10-15T05:29:55.554Z,20.4
2022-10-15T05:32:13.631Z,20.6
2022-10-15T05:34:31.097Z,20.3
2022-10-15T05:36:48.658Z,20.6
2022-10-15T05:39:06.295Z,20.5
2022-10-15T05:41:23.898Z,20.4
2022-10-15T05:43:41.642Z,20.6
2022-10-15T05:45:59.260Z,20.6
2022-10-15T05:48:17.677Z,20.4
2022-10-15T05:50:34.699Z,20.3
2022-10-15T05:52:52.775Z,20.5
2022-10-15T05:55:10.192Z,20.6
2022-10-15T05:57:27.772Z,20.6
2022-10-15T05:59:30.422Z,20.6
2022-10-15T05:59:45.668Z,20.2
2022-10-15T06:02:03.368Z,20.6
2022-10-15T06:04:21.442Z,20.8
2022-10-15T06:06:38.580Z,20.6
2022-10-15T06:08:56.572Z,20.6
2022-10-15T06:11:14.025Z,20.5
2022-10-15T06:13:32.080Z,20.4
2022-10-15T06:15:49.463Z,20.5
2022-10-15T06:18:07.442Z,20.6
2022-10-15T06:20:24.902Z,20.9
2022-10-15T06:22:42.542Z,20.8
2022-10-15T06:25:00.565Z,20.4
2022-10-15T06:27:17.821Z,20.8
2022-10-15T06:29:35.725Z,20.6
2022-10-15T06:31:53.161Z,20.4
2022-10-15T06:34:11.099Z,20.4
2022-10-15T06:36:28.779Z,20.3
2022-10-15T06:38:47.544Z,20.6
2022-10-15T06:41:04.365Z,20.1
2022-10-15T06:43:22.194Z,20.6
2022-10-15T06:45:40.124Z,20.4
2022-10-15T06:47:57.834Z,20.4
2022-10-15T06:50:15.747Z,20.4
2022-10-15T06:52:18.061Z,20.3
2022-10-15T06:52:33.264Z,20.6
2022-10-15T06:54:51.619Z,20.8
2022-10-15T06:57:09.186Z,20.4
2022-10-15T06:59:27.038Z,20.6
2022-10-15T07:01:44.804Z,20.7
2022-10-15T07:04:02.852Z,20.6
2022-10-15T07:06:20.313Z,20.5
2022-10-15T07:08:38.446Z,20.8
2022-10-15T07:10:55.717Z,20.7
2022-10-15T07:13:13.341Z,20.8
2022-10-15T07:15:31.144Z,20.9
2022-10-15T07:17:48.778Z,20.9
2022-10-15T07:20:06.500Z,20.9
2022-10-15T07:22:24.009Z,20.9
2022-10-15T07:24:42.140Z,20.9
2022-10-15T07:27:00.652Z,20.8
2022-10-15T07:29:17.146Z,20.6
2022-10-15T07:31:35.347Z,20.8
2022-10-15T07:33:52.702Z,20.8
2022-10-15T07:36:10.502Z,20.8
2022-10-15T07:38:28.075Z,20.6
2022-10-15T07:40:45.932Z,20.8
2022-10-15T07:43:03.612Z,20.9
2022-10-15T07:45:06.794Z,20.8
2022-10-15T07:45:22.276Z,20.9
2022-10-15T07:47:39.340Z,21.1
2022-10-15T07:49:57.131Z,20.9
2022-10-15T07:52:14.722Z,20.9
2022-10-15T07:54:32.321Z,20.9
2022-10-15T07:56:50.164Z,20.8
2022-10-15T07:59:07.873Z,21
2022-10-15T08:01:25.930Z,20.8
2022-10-15T08:05:45.838Z,20.8
2022-10-15T08:06:01.070Z,21.3
2022-10-15T08:10:36.643Z,21.3
2022-10-15T08:12:53.819Z,21.4
2022-10-15T08:17:29.764Z,21
2022-10-15T08:19:46.928Z,21
2022-10-15T08:21:49.207Z,21.1
2022-10-15T08:22:04.426Z,20.9
2022-10-15T08:24:21.682Z,21.1
2022-10-15T08:26:39.221Z,21.2
2022-10-15T08:28:56.479Z,21.1
2022-10-15T08:31:13.916Z,21.2
2022-10-15T08:33:31.385Z,21.4
2022-10-15T08:35:48.780Z,21.4
2022-10-15T08:38:06.026Z,21.5
2022-10-15T08:40:23.298Z,21
2022-10-15T08:42:40.852Z,21.6
2022-10-15T08:47:15.258Z,21.3
2022-10-15T08:49:32.527Z,21
2022-10-15T08:51:49.981Z,20.9
2022-10-15T08:53:51.863Z,21.2
2022-10-15T08:56:24.809Z,20.9
2022-10-15T08:58:41.902Z,21.4
2022-10-15T09:00:59.256Z,21.1
2022-10-15T09:03:16.892Z,21.3
2022-10-15T09:07:53.599Z,21.2
2022-10-15T09:10:09.419Z,21.2
2022-10-15T09:12:27.155Z,21.3
2022-10-15T09:14:44.728Z,21.3
2022-10-15T09:17:02.990Z,21.1
2022-10-15T09:19:20.228Z,21.2
2022-10-15T09:21:38.013Z,21.3
2022-10-15T09:26:13.038Z,21.2
2022-10-15T09:28:30.624Z,21.2
2022-10-15T09:30:32.803Z,21.3
2022-10-15T09:30:48.185Z,20.9
2022-10-15T09:33:05.783Z,21.3
2022-10-15T09:35:23.345Z,21.3
2022-10-15T09:39:59.289Z,21.2
2022-10-15T09:42:16.610Z,21.4
2022-10-15T09:44:33.863Z,21.2
2022-10-15T09:46:51.407Z,21.3
2022-10-15T09:49:09.165Z,21.1
2022-10-15T09:51:26.685Z,21.1
2022-10-15T09:53:44.363Z,21.3
2022-10-15T10:00:37.311Z,21.3
2022-10-15T10:02:55.075Z,21.1
2022-10-15T10:04:57.870Z,21.2
2022-10-15T10:05:12.578Z,21.1
2022-10-15T10:07:30.370Z,21.3
2022-10-15T10:09:47.942Z,21.2
2022-10-15T10:12:05.693Z,21.1
2022-10-15T10:14:23.333Z,21.3
2022-10-15T10:16:41.019Z,21.4
2022-10-15T10:18:58.618Z,21.3
2022-10-15T10:21:01.109Z,21
2022-10-15T10:21:16.163Z,21.1
2022-10-15T10:23:34.066Z,21.2
2022-10-15T10:28:09.527Z,21
2022-10-15T10:30:32.740Z,21.2
2022-10-15T10:32:50.383Z,21.1
2022-10-15T10:35:07.915Z,21.2
2022-10-15T10:37:25.894Z,21
2022-10-15T10:39:42.964Z,21.2
2022-10-15T10:46:35.692Z,21.1
2022-10-15T10:48:53.410Z,21.6
2022-10-15T10:51:11.945Z,21.2
2022-10-15T10:53:27.831Z,21.3
2022-10-15T10:55:46.108Z,21.2
2022-10-15T10:58:03.578Z,21.2
2022-10-15T11:02:38.645Z,21.2
2022-10-15T11:04:56.266Z,21.1
2022-10-15T11:07:13.841Z,21.2
2022-10-15T11:09:31.784Z,21.3
2022-10-15T11:11:48.928Z,21.3
2022-10-15T11:14:06.773Z,21
2022-10-15T11:16:24.055Z,21.2
2022-10-15T11:18:41.761Z,21
2022-10-15T11:23:53.626Z,21.3
2022-10-15T11:26:10.992Z,21.1
2022-10-15T11:28:29.360Z,21.1
2022-10-15T11:38:08.119Z,21.4
2022-10-15T11:40:25.713Z,21.1
2022-10-15T11:42:43.170Z,21.1
2022-10-15T11:45:00.741Z,21.1
2022-10-15T11:56:28.626Z,21
2022-10-15T11:58:46.282Z,21.3
2022-10-15T12:01:03.698Z,21.1
2022-10-15T12:03:21.380Z,21.2
2022-10-15T12:07:56.477Z,21.1
2022-10-15T12:10:14.231Z,21.2
2022-10-15T12:12:31.646Z,21.3
2022-10-15T12:14:49.004Z,21
2022-10-15T12:17:06.622Z,20.9
2022-10-15T12:23:59.259Z,21
2022-10-15T12:28:34.681Z,21.2
2022-10-15T12:30:52.087Z,21.2
2022-10-15T12:35:27.067Z,21
2022-10-15T12:37:44.688Z,20.9
2022-10-15T12:40:10.102Z,20.9
2022-10-15T12:42:27.828Z,21.1
2022-10-15T12:44:45.368Z,21.1
2022-10-15T12:47:02.964Z,20.9
2022-10-15T12:49:20.387Z,21.1
2022-10-15T12:51:37.885Z,21
2022-10-15T12:53:56.209Z,21.2
2022-10-15T12:56:13.278Z,21.1
2022-10-15T12:58:30.681Z,21.3
2022-10-15T13:00:48.189Z,21
2022-10-15T13:03:05.522Z,20.9
2022-10-15T13:05:22.949Z,20.9
2022-10-15T13:07:40.185Z,20.9
2022-10-15T13:09:57.678Z,21
2022-10-15T13:12:15.122Z,21.1
2022-10-15T13:14:32.478Z,20.9
2022-10-15T13:18:52.156Z,21.1
2022-10-15T13:19:07.311Z,20.9
2022-10-15T13:21:24.808Z,20.8
2022-10-15T13:23:46.590Z,20.6
2022-10-15T13:26:04.012Z,20.9
2022-10-15T13:28:21.488Z,21.1
2022-10-15T13:30:38.844Z,20.6
2022-10-15T13:32:56.045Z,20.9
2022-10-15T13:35:13.503Z,21.2
2022-10-15T13:37:30.867Z,20.6
2022-10-15T13:39:48.278Z,20.9
2022-10-15T13:42:05.903Z,21
2022-10-15T13:44:23.169Z,21.3
2022-10-15T13:46:40.601Z,20.9
2022-10-15T13:51:15.802Z,21
2022-10-15T13:55:50.716Z,21
2022-10-15T13:58:08.181Z,21.1
2022-10-15T14:00:25.570Z,20.7
2022-10-15T14:02:43.097Z,20.7
2022-10-15T14:05:00.549Z,20.7
2022-10-15T14:07:17.778Z,20.6
2022-10-15T14:11:52.514Z,20.8
2022-10-15T14:14:09.860Z,20.9
2022-10-15T14:16:27.138Z,21.1
2022-10-15T14:18:46.587Z,20.8
2022-10-15T14:23:32.832Z,20.9
2022-10-15T14:25:50.395Z,20.9
2022-10-15T14:28:07.815Z,21.3
2022-10-15T14:30:25.201Z,21.1
2022-10-15T14:32:42.582Z,21.2
2022-10-15T14:34:59.843Z,21.1
2022-10-15T14:37:17.163Z,20.6
2022-10-15T14:41:52.070Z,21.1
2022-10-15T14:46:26.853Z,21.1
2022-10-15T14:48:44.407Z,21
2022-10-15T14:50:46.547Z,21.2
2022-10-15T14:51:01.730Z,20.8
2022-10-15T14:53:19.933Z,21.2
2022-10-15T14:55:21.324Z,21
2022-10-15T14:55:36.698Z,20.6
2022-10-15T14:57:54.073Z,20.8
2022-10-15T15:00:11.895Z,20.8
2022-10-15T15:02:28.627Z,20.7
2022-10-15T15:04:45.989Z,20.6
2022-10-15T15:07:03.355Z,20.6
2022-10-15T15:09:20.680Z,20.7
2022-10-15T15:11:37.927Z,20.7
2022-10-15T15:13:55.322Z,20.9
2022-10-15T15:16:12.670Z,20.9
2022-10-15T15:18:29.973Z,20.9
2022-10-15T15:20:47.296Z,20.8
2022-10-15T15:23:04.654Z,20.9
2022-10-15T15:25:22.151Z,20.9
2022-10-15T15:27:39.363Z,20.8
2022-10-15T15:29:56.708Z,20.8
2022-10-15T15:32:14.093Z,20.7
2022-10-15T15:34:31.390Z,20.8
2022-10-15T15:36:48.743Z,20.8
2022-10-15T15:39:06.346Z,20.8
2022-10-15T15:41:23.504Z,20.7
2022-10-15T15:43:40.769Z,20.6
2022-10-15T15:45:58.145Z,20.8
2022-10-15T15:48:15.482Z,20.8
2022-10-15T15:50:33.005Z,20.6
2022-10-15T15:52:50.538Z,21
2022-10-15T15:55:08.055Z,20.9
2022-10-15T15:57:25.574Z,21
2022-10-15T16:02:00.854Z,21
2022-10-15T16:04:18.298Z,20.9
2022-10-15T16:06:35.841Z,20.9
2022-10-15T16:08:53.721Z,21.2
2022-10-15T16:11:10.973Z,20.8
2022-10-15T16:13:28.487Z,20.8
2022-10-15T16:15:46.512Z,21.1
2022-10-15T16:18:04.445Z,20.8
2022-10-15T16:20:22.223Z,20.9
2022-10-15T16:22:39.823Z,20.9
2022-10-15T16:24:57.933Z,21
2022-10-15T16:27:15.372Z,20.9
2022-10-15T16:29:33.066Z,20.8
2022-10-15T16:31:50.959Z,21
2022-10-15T16:34:08.653Z,20.9
2022-10-15T16:36:26.672Z,20.9
2022-10-15T16:38:44.164Z,20.9
2022-10-15T16:43:19.799Z,20.9
2022-10-15T16:45:37.604Z,20.8
2022-10-15T16:47:55.209Z,20.9
2022-10-15T16:50:18.188Z,20.8
2022-10-15T16:52:30.907Z,21
2022-10-15T16:54:48.389Z,20.8
2022-10-15T16:57:06.310Z,20.8
2022-10-15T16:59:23.855Z,20.9
2022-10-15T17:01:42.394Z,20.8
2022-10-15T17:04:00.131Z,21
2022-10-15T17:06:17.957Z,20.8
2022-10-15T17:08:35.831Z,20.8
2022-10-15T17:10:54.256Z,20.8
2022-10-15T17:13:10.954Z,20.9
2022-10-15T17:15:28.668Z,20.8
2022-10-15T17:17:46.445Z,21
2022-10-15T17:20:04.142Z,21
2022-10-15T17:22:22.008Z,20.8
2022-10-15T17:24:39.788Z,21
2022-10-15T17:26:57.471Z,20.8
2022-10-15T17:29:15.063Z,20.9
2022-10-15T17:31:33.031Z,20.9
2022-10-15T17:33:50.374Z,20.8
2022-10-15T17:36:08.394Z,20.9
2022-10-15T17:38:10.690Z,21
2022-10-15T17:38:25.873Z,20.7
2022-10-15T17:40:43.468Z,20.9
2022-10-15T17:43:01.230Z,20.8
2022-10-15T17:45:18.718Z,20.9
2022-10-15T17:47:36.635Z,20.9
2022-10-15T17:49:54.185Z,21.1
2022-10-15T17:52:11.983Z,20.9
2022-10-15T17:56:48.030Z,20.9
2022-10-15T17:59:05.309Z,20.9
2022-10-15T18:01:27.845Z,20.6
2022-10-15T18:05:51.199Z,20.8
2022-10-15T18:06:06.355Z,20.7
2022-10-15T18:08:24.130Z,21.1
2022-10-15T18:10:41.800Z,20.9
2022-10-15T18:12:59.551Z,20.6
2022-10-15T18:15:17.155Z,20.8
2022-10-15T18:17:34.683Z,20.9
2022-10-15T18:19:52.117Z,20.9
2022-10-15T18:22:09.784Z,20.8
2022-10-15T18:24:27.503Z,20.8
2022-10-15T18:26:44.993Z,21
2022-10-15T18:29:02.780Z,20.8
2022-10-15T18:31:20.232Z,20.8
2022-10-15T18:33:37.767Z,20.8
2022-10-15T18:35:55.539Z,20.8
2022-10-15T18:38:13.880Z,21.2
2022-10-15T18:40:30.961Z,20.8
2022-10-15T18:42:49.346Z,20.8
2022-10-15T18:45:06.317Z,20.6
2022-10-15T18:47:24.042Z,20.8
2022-10-15T18:49:41.674Z,20.6
2022-10-15T18:52:03.021Z,20.6
2022-10-15T18:54:17.089Z,20.9
2022-10-15T18:56:19.250Z,20.9
2022-10-15T18:56:34.572Z,20.6
2022-10-15T18:58:52.075Z,20.9
2022-10-15T19:01:09.866Z,21.1
2022-10-15T19:03:27.272Z,20.9
2022-10-15T19:05:44.810Z,21
2022-10-15T19:08:02.492Z,20.9
2022-10-15T19:10:20.312Z,20.6
2022-10-15T19:12:37.902Z,20.5
2022-10-15T19:14:55.477Z,20.8
2022-10-15T19:17:12.958Z,20.9
2022-10-15T19:19:30.760Z,20.8
2022-10-15T19:21:48.384Z,20.8
2022-10-15T19:24:05.949Z,20.7
2022-10-15T19:26:23.532Z,20.9
2022-10-15T19:28:41.488Z,20.8
2022-10-15T19:30:58.905Z,20.6
2022-10-15T19:33:16.576Z,20.4
2022-10-15T19:35:34.122Z,20.6
2022-10-15T19:37:51.698Z,20.8
2022-10-15T19:40:09.325Z,20.6
2022-10-15T19:42:27.007Z,20.6
2022-10-15T19:44:44.532Z,20.9
2022-10-15T19:47:02.282Z,20.8
2022-10-15T19:49:04.930Z,20.3
2022-10-15T19:49:20.059Z,20.9
2022-10-15T19:51:37.687Z,20.6
2022-10-15T19:53:55.467Z,20.4
2022-10-15T19:56:12.961Z,20.8
2022-10-15T19:58:30.624Z,20.5
2022-10-15T20:00:48.294Z,20.4
2022-10-15T20:03:05.783Z,20.9
2022-10-15T20:05:23.479Z,20.6
2022-10-15T20:07:41.180Z,20.6
2022-10-15T20:09:58.914Z,20.6
2022-10-15T20:12:16.621Z,20.5
2022-10-15T20:14:34.682Z,20.8
2022-10-15T20:16:52.120Z,20.7
2022-10-15T20:19:09.723Z,20.5
2022-10-15T20:21:27.634Z,20.4
2022-10-15T20:23:45.415Z,20.4
2022-10-15T20:26:03.528Z,20.3
2022-10-15T20:28:20.988Z,20.6
2022-10-15T20:30:38.651Z,20.9
2022-10-15T20:32:56.145Z,20.9
2022-10-15T20:35:14.017Z,20.8
2022-10-15T20:37:31.850Z,20.5
2022-10-15T20:39:49.813Z,20.4
2022-10-15T20:42:07.440Z,20.5
2022-10-15T20:44:25.091Z,20.3
2022-10-15T20:46:43.129Z,20.6
2022-10-15T20:49:02.224Z,20.5
2022-10-15T20:51:18.620Z,20.4
2022-10-15T20:53:36.260Z,20.4
2022-10-15T20:55:54.219Z,20.3
2022-10-15T20:58:11.922Z,20.5
2022-10-15T21:00:30.099Z,20.4
2022-10-15T21:02:47.527Z,20.5
2022-10-15T21:05:04.874Z,20.6
2022-10-15T21:07:22.652Z,20.8
2022-10-15T21:09:40.157Z,20.7
2022-10-15T21:11:58.045Z,20.7
2022-10-15T21:14:15.604Z,20.8
2022-10-15T21:16:33.522Z,20.7
2022-10-15T21:18:51.159Z,20.6
2022-10-15T21:21:09.075Z,20.4
2022-10-15T21:23:26.495Z,20.8
2022-10-15T21:25:44.501Z,20.7
2022-10-15T21:28:02.279Z,20.6
2022-10-15T21:30:19.930Z,20.8
2022-10-15T21:32:37.729Z,20.6
2022-10-15T21:34:55.267Z,20.8
2022-10-15T21:37:13.149Z,20.7
2022-10-15T21:39:30.879Z,20.7
2022-10-15T21:41:48.817Z,20.6
2022-10-15T21:44:06.257Z,20.9
2022-10-15T21:46:24.237Z,20.8
2022-10-15T21:48:41.608Z,21.2
2022-10-15T21:50:59.260Z,20.9
2022-10-15T21:53:17.201Z,20.6
2022-10-15T21:55:34.820Z,20.6
2022-10-15T21:57:52.952Z,20.8
2022-10-15T22:00:10.530Z,20.5
2022-10-15T22:02:28.308Z,20.7
2022-10-15T22:04:45.925Z,20.4
2022-10-15T22:07:03.606Z,20.8
2022-10-15T22:09:21.259Z,20.8
2022-10-15T22:11:39.218Z,20.7
2022-10-15T22:13:56.927Z,20.5
2022-10-15T22:16:14.529Z,20.8
2022-10-15T22:18:32.410Z,20.5
2022-10-15T22:20:50.103Z,20.8
2022-10-15T22:23:07.974Z,20.4
2022-10-15T22:25:25.711Z,20.5
2022-10-15T22:27:43.590Z,20.6
2022-10-15T22:29:46.183Z,20.4
2022-10-15T22:30:01.900Z,20.4
2022-10-15T22:32:19.795Z,20.6
2022-10-15T22:34:36.867Z,21.1
2022-10-15T22:36:54.229Z,20.8
2022-10-15T22:39:12.087Z,20.6
2022-10-15T22:41:29.555Z,20.7
2022-10-15T22:43:47.426Z,20.9
2022-10-15T22:46:05.095Z,20.8
2022-10-15T22:48:22.906Z,20.5
2022-10-15T22:50:40.651Z,20.6
2022-10-15T22:52:58.427Z,20.8
2022-10-15T22:55:16.186Z,20.4
2022-10-15T22:57:34.213Z,20.6
2022-10-15T22:59:54.705Z,20.7
2022-10-15T23:02:09.538Z,20.3
2022-10-15T23:04:27.673Z,20.8
2022-10-15T23:06:45.199Z,20.4
2022-10-15T23:09:03.200Z,20.4
2022-10-15T23:11:20.598Z,20.7
2022-10-15T23:13:38.329Z,20.7
2022-10-15T23:15:55.865Z,20.8
2022-10-15T23:18:14.042Z,20.7
2022-10-15T23:20:32.523Z,20.5
2022-10-15T23:22:49.177Z,20.6
2022-10-15T23:25:07.062Z,20.8
2022-10-15T23:27:24.980Z,20.6
2022-10-15T23:29:43.069Z,20.8
2022-10-15T23:32:03.555Z,20.5
2022-10-15T23:34:21.138Z,20.9
2022-10-15T23:36:38.950Z,20.8
2022-10-15T23:38:56.566Z,20.6
2022-10-15T23:41:14.285Z,20.5
2022-10-15T23:43:31.834Z,20.7
2022-10-15T23:45:49.435Z,20.6
2022-10-15T23:48:06.914Z,20.8
2022-10-15T23:50:24.463Z,20.8
2022-10-15T23:52:42.063Z,20.7
2022-10-15T23:54:59.712Z,20.6
2022-10-15T23:57:17.161Z,20.9
2022-10-15T23:59:34.817Z,20.8
